Time;durP1;ratioP1;P1;durP2;ratioP2;P2;SDS_P1;SDS_P2;PMS_P1;PMS_P2;Temp;Humidity;BMP_temperature;BMP_pressure;BME280_temperature;BME280_humidity;BME280_pressure;Samples;Min_cycle;Max_cycle;Signal;HPM_P1;HPM_P2
2023/02/17 00:00:32;;;;;;;8.47;7.67;;;12.30;99.90;;;;;;5031576;28;20307;-81
2023/02/17 00:02:59;;;;;;;8.27;7.47;;;12.30;99.90;;;;;;5035422;28;20190;-87
2023/02/17 00:05:26;;;;;;;7.83;7.03;;;12.30;99.90;;;;;;5032206;28;20190;-85
2023/02/17 00:07:53;;;;;;;7.23;6.53;;;12.30;99.90;;;;;;5041080;28;20261;-85
2023/02/17 00:10:20;;;;;;;7.90;7.20;;;12.30;99.90;;;;;;5025623;28;20224;-92
2023/02/17 00:12:46;;;;;;;8.47;7.37;;;12.30;99.90;;;;;;5029508;28;20202;-89
2023/02/17 00:15:11;;;;;;;8.00;7.20;;;12.40;99.90;;;;;;5047205;28;20173;-88
2023/02/17 00:17:37;;;;;;;8.13;7.33;;;12.40;99.90;;;;;;5048258;28;20188;-90
2023/02/17 00:20:05;;;;;;;9.13;7.70;;;12.40;99.90;;;;;;5045734;28;20209;-85
2023/02/17 00:22:31;;;;;;;8.53;7.73;;;12.40;99.90;;;;;;5045772;28;20169;-91
2023/02/17 00:24:56;;;;;;;7.53;6.70;;;12.40;99.90;;;;;;5061825;28;20173;-90
2023/02/17 00:27:22;;;;;;;6.40;5.80;;;12.50;99.90;;;;;;5059162;28;20161;-80
2023/02/17 00:29:49;;;;;;;6.90;6.30;;;12.30;99.90;;;;;;5057737;28;20205;-80
2023/02/17 00:32:14;;;;;;;6.73;6.10;;;12.30;99.90;;;;;;5059312;28;20339;-80
2023/02/17 00:34:46;;;;;;;8.30;6.20;;;12.40;99.90;;;;;;5059201;28;20180;-81
2023/02/17 00:37:11;;;;;;;6.77;6.10;;;12.30;99.90;;;;;;5056864;28;20266;-86
2023/02/17 00:39:37;;;;;;;7.77;6.80;;;12.40;99.90;;;;;;5055990;28;20209;-91
2023/02/17 00:42:03;;;;;;;8.90;7.00;;;12.40;99.90;;;;;;5053782;28;20249;-85
2023/02/17 00:44:29;;;;;;;7.90;7.20;;;12.30;99.90;;;;;;5040307;28;20201;-86
2023/02/17 00:46:54;;;;;;;8.40;7.50;;;12.40;99.90;;;;;;5039479;28;20364;-83
2023/02/17 00:49:25;;;;;;;7.70;7.00;;;12.40;99.90;;;;;;5040146;28;20182;-79
2023/02/17 00:51:53;;;;;;;7.10;6.40;;;12.40;99.90;;;;;;5035943;28;20183;-81
2023/02/17 00:54:22;;;;;;;7.27;6.47;;;12.40;99.90;;;;;;5029958;28;20213;-92
2023/02/17 00:56:49;;;;;;;7.17;6.47;;;12.30;99.90;;;;;;5035940;28;20184;-92
2023/02/17 00:59:14;;;;;;;8.23;7.43;;;12.20;99.90;;;;;;5056029;28;20757;-84
2023/02/17 01:01:40;;;;;;;7.83;7.03;;;12.30;99.90;;;;;;5040022;28;20178;-84
2023/02/17 01:04:06;;;;;;;8.00;7.30;;;12.20;99.90;;;;;;5048259;28;20189;-80
2023/02/17 01:06:35;;;;;;;8.80;7.53;;;12.30;99.90;;;;;;5023177;28;20681;-81
2023/02/17 01:09:06;;;;;;;9.43;7.90;;;12.20;99.90;;;;;;5028911;28;20206;-93
2023/02/17 01:11:34;;;;;;;8.60;7.67;;;12.20;99.90;;;;;;5024400;28;20166;-92
2023/02/17 01:14:01;;;;;;;8.30;7.17;;;12.20;99.90;;;;;;5021840;28;20171;-93
2023/02/17 01:16:35;;;;;;;9.73;7.00;;;12.30;99.90;;;;;;5022211;28;20181;-92
2023/02/17 01:19:06;;;;;;;8.53;7.07;;;12.20;99.90;;;;;;5024525;28;20210;-86
2023/02/17 01:21:32;;;;;;;7.70;6.90;;;12.10;99.90;;;;;;5039345;28;20168;-86
2023/02/17 01:24:01;;;;;;;7.27;6.57;;;12.10;99.90;;;;;;5033328;28;20209;-81
2023/02/17 01:26:30;;;;;;;6.57;5.83;;;12.10;99.90;;;;;;5031535;28;20635;-83
2023/02/17 01:28:57;;;;;;;7.63;5.13;;;12.20;99.90;;;;;;5023196;28;20167;-92
2023/02/17 01:31:25;;;;;;;5.90;4.97;;;12.10;99.90;;;;;;5022913;28;20178;-88
2023/02/17 01:33:52;;;;;;;6.27;4.97;;;12.20;99.90;;;;;;5034762;28;20665;-84
2023/02/17 01:36:20;;;;;;;5.57;4.90;;;12.10;99.90;;;;;;5046311;28;20179;-81
2023/02/17 01:38:49;;;;;;;6.63;4.43;;;12.00;99.90;;;;;;5043799;28;20182;-87
2023/02/17 01:41:16;;;;;;;5.57;4.97;;;12.00;99.90;;;;;;5046169;28;20213;-85
2023/02/17 01:43:42;;;;;;;6.87;5.30;;;12.00;99.90;;;;;;5055816;28;20162;-82
2023/02/17 01:46:10;;;;;;;7.10;5.90;;;11.90;99.90;;;;;;5054297;28;20170;-86
2023/02/17 01:48:37;;;;;;;8.27;6.50;;;11.90;99.90;;;;;;5056558;28;20234;-83
2023/02/17 01:51:27;;;;;;;7.73;6.93;;;12.00;99.90;;;;;;5059070;28;20142;-80
2023/02/17 01:53:53;;;;;;;7.80;6.43;;;12.10;99.90;;;;;;5058339;28;20214;-80
2023/02/17 01:56:20;;;;;;;7.30;6.50;;;12.00;99.90;;;;;;5040360;28;20189;-91
2023/02/17 01:58:52;;;;;;;8.03;6.80;;;11.90;99.90;;;;;;5039933;28;20200;-91
2023/02/17 02:01:18;;;;;;;7.30;6.00;;;12.00;99.90;;;;;;5034145;28;20190;-92
2023/02/17 02:03:44;;;;;;;9.97;6.30;;;11.90;99.90;;;;;;5020282;28;20167;-89
2023/02/17 02:06:15;;;;;;;8.37;5.87;;;12.00;99.90;;;;;;5030989;28;20185;-86
2023/02/17 02:09:05;;;;;;;7.13;5.83;;;11.80;99.90;;;;;;5068551;28;20181;-81
2023/02/17 02:11:30;;;;;;;9.77;5.57;;;11.80;99.90;;;;;;5047989;28;20170;-83
2023/02/17 02:13:58;;;;;;;8.50;6.23;;;11.70;99.90;;;;;;5058342;28;20641;-84
2023/02/17 02:16:28;;;;;;;7.60;5.50;;;11.80;99.90;;;;;;5041060;28;20173;-89
2023/02/17 02:19:17;;;;;;;8.63;6.80;;;11.80;99.90;;;;;;5039156;28;20200;-88
2023/02/17 02:22:10;;;;;;;7.37;5.73;;;11.80;99.90;;;;;;5052635;28;20273;-84
2023/02/17 02:24:52;;;;;;;10.13;6.67;;;11.80;99.90;;;;;;5029123;28;20194;-83
2023/02/17 02:27:41;;;;;;;8.20;6.33;;;11.70;99.90;;;;;;5035174;28;20178;-91
2023/02/17 02:30:28;;;;;;;9.53;6.70;;;11.90;99.90;;;;;;5038060;28;20200;-90
2023/02/17 02:33:02;;;;;;;9.43;6.13;;;11.70;99.90;;;;;;5038233;28;20169;-85
2023/02/17 02:35:43;;;;;;;8.37;6.47;;;11.80;99.90;;;;;;5041662;28;20204;-82
2023/02/17 02:38:15;;;;;;;8.33;6.00;;;11.70;99.90;;;;;;5033274;28;20182;-83
2023/02/17 02:40:47;;;;;;;8.30;6.87;;;11.70;99.90;;;;;;5033699;28;20210;-82
2023/02/17 02:43:14;;;;;;;9.17;7.17;;;11.80;99.90;;;;;;5049086;28;20181;-81
2023/02/17 02:45:40;;;;;;;11.00;7.23;;;11.70;99.90;;;;;;5044751;28;20181;-88
2023/02/17 02:48:06;;;;;;;8.43;6.50;;;11.60;99.90;;;;;;5039438;28;20174;-93
2023/02/17 02:51:03;;;;;;;7.80;6.10;;;11.60;99.90;;;;;;5038651;28;20193;-92
2023/02/17 02:53:57;;;;;;;7.73;5.97;;;11.50;99.90;;;;;;5027557;28;20417;-89
2023/02/17 02:56:36;;;;;;;8.50;6.27;;;11.50;99.90;;;;;;5040089;28;20181;-83
2023/02/17 02:59:17;;;;;;;8.63;6.10;;;11.50;99.90;;;;;;5033346;28;20197;-85
2023/02/17 03:02:26;;;;;;;8.47;6.50;;;11.40;99.90;;;;;;5056345;28;20177;-90
2023/02/17 03:04:57;;;;;;;6.90;5.77;;;11.30;99.90;;;;;;5033781;28;20200;-83
2023/02/17 03:07:32;;;;;;;7.90;6.43;;;11.40;99.90;;;;;;5024420;28;20270;-81
2023/02/17 03:09:59;;;;;;;9.23;6.13;;;11.50;99.90;;;;;;5025452;28;20166;-82
2023/02/17 03:12:27;;;;;;;9.13;6.57;;;11.40;99.90;;;;;;5035535;28;20201;-84
2023/02/17 03:15:10;;;;;;;8.77;6.47;;;11.30;99.90;;;;;;5037049;28;20166;-81
2023/02/17 03:17:35;;;;;;;8.13;6.60;;;11.40;99.90;;;;;;5021914;28;20285;-80
2023/02/17 03:20:05;;;;;;;9.17;7.00;;;11.30;99.90;;;;;;5050191;28;20221;-80
2023/02/17 03:22:35;;;;;;;10.07;7.20;;;11.30;99.90;;;;;;5047262;28;20233;-90
2023/02/17 03:25:02;;;;;;;10.00;7.53;;;11.30;99.90;;;;;;5043283;28;20198;-81
2023/02/17 03:27:28;;;;;;;9.30;6.83;;;11.30;99.90;;;;;;5039250;28;20174;-83
2023/02/17 03:29:53;;;;;;;10.37;7.57;;;11.30;99.90;;;;;;5033464;28;20170;-80
2023/02/17 03:32:19;;;;;;;10.63;7.07;;;11.40;99.90;;;;;;5037535;28;20162;-80
2023/02/17 03:34:45;;;;;;;10.90;7.13;;;11.40;99.90;;;;;;5057125;28;20229;-80
2023/02/17 03:37:11;;;;;;;8.73;6.50;;;11.40;99.90;;;;;;5054174;28;20177;-79
2023/02/17 03:42:59;;;;;;;7.23;5.87;;;11.40;99.90;;;;;;5050777;28;20157;-83
2023/02/17 03:45:25;;;;;;;7.60;6.23;;;11.30;99.90;;;;;;5054291;28;20241;-81
2023/02/17 03:47:50;;;;;;;8.73;5.50;;;11.30;99.90;;;;;;5053607;28;20166;-80
2023/02/17 03:50:16;;;;;;;8.00;5.47;;;11.40;99.90;;;;;;5054372;28;20198;-80
2023/02/17 03:52:42;;;;;;;9.50;6.20;;;11.40;99.90;;;;;;5046071;28;20173;-81
2023/02/17 03:55:08;;;;;;;8.10;6.17;;;11.50;99.90;;;;;;5021906;28;20163;-93
2023/02/17 03:57:34;;;;;;;7.67;6.10;;;11.30;99.90;;;;;;5027013;28;20181;-90
2023/02/17 04:00:00;;;;;;;7.63;5.83;;;11.40;99.90;;;;;;5039667;28;20665;-91
2023/02/17 04:02:26;;;;;;;9.50;6.13;;;11.30;99.90;;;;;;5037681;28;20197;-92
2023/02/17 04:04:51;;;;;;;7.77;6.10;;;11.60;99.90;;;;;;5024432;28;20182;-85
2023/02/17 04:07:20;;;;;;;7.50;5.97;;;11.30;99.90;;;;;;5043639;28;20246;-81
2023/02/17 04:09:45;;;;;;;8.87;5.53;;;11.40;99.90;;;;;;5026422;28;20209;-85
2023/02/17 04:12:13;;;;;;;11.17;5.90;;;11.30;99.90;;;;;;5024012;28;20212;-84
2023/02/17 04:14:39;;;;;;;8.90;5.77;;;11.20;99.90;;;;;;5030385;28;20171;-84
2023/02/17 04:17:05;;;;;;;8.30;5.70;;;11.30;99.90;;;;;;5035540;28;20177;-88
2023/02/17 04:19:32;;;;;;;7.30;5.93;;;11.40;99.90;;;;;;5034987;28;20190;-81
2023/02/17 04:22:00;;;;;;;10.03;5.97;;;11.30;99.90;;;;;;5045316;28;20234;-85
2023/02/17 04:24:28;;;;;;;8.57;5.97;;;11.20;99.90;;;;;;5030557;28;20190;-80
2023/02/17 04:26:54;;;;;;;7.43;6.00;;;11.20;99.90;;;;;;5034146;28;20154;-82
2023/02/17 04:29:20;;;;;;;9.00;6.23;;;11.20;99.90;;;;;;5028168;28;20177;-85
2023/02/17 04:31:45;;;;;;;9.00;6.23;;;11.40;99.90;;;;;;5047773;28;20177;-89
2023/02/17 04:34:14;;;;;;;8.50;5.80;;;11.20;99.90;;;;;;5046269;28;20173;-92
2023/02/17 04:36:40;;;;;;;9.50;6.60;;;11.20;99.90;;;;;;5039397;28;20308;-91
2023/02/17 04:39:05;;;;;;;7.30;6.43;;;11.20;99.90;;;;;;5039056;28;20233;-93
2023/02/17 04:41:31;;;;;;;9.17;6.00;;;11.20;99.90;;;;;;5041077;28;20170;-89
2023/02/17 04:43:57;;;;;;;9.47;6.30;;;11.20;99.90;;;;;;5041816;28;20193;-87
2023/02/17 04:46:22;;;;;;;8.17;5.80;;;11.20;99.90;;;;;;5051431;28;20174;-87
2023/02/17 04:48:48;;;;;;;8.63;6.10;;;11.20;99.90;;;;;;5042869;28;20201;-84
2023/02/17 04:51:14;;;;;;;8.57;6.23;;;11.20;99.90;;;;;;5046398;28;20223;-87
2023/02/17 04:53:39;;;;;;;8.87;5.40;;;11.30;99.90;;;;;;5043248;28;20645;-91
2023/02/17 04:56:05;;;;;;;8.57;5.93;;;11.20;99.90;;;;;;5047618;28;20174;-91
2023/02/17 04:58:31;;;;;;;9.47;6.27;;;11.20;99.90;;;;;;5048470;28;20209;-83
2023/02/17 05:00:59;;;;;;;9.17;5.07;;;11.20;99.90;;;;;;5043829;28;20292;-87
2023/02/17 05:03:26;;;;;;;8.97;5.47;;;11.20;99.90;;;;;;5043461;28;20649;-88
2023/02/17 05:05:52;;;;;;;10.20;5.77;;;11.20;99.90;;;;;;5040187;28;20196;-92
2023/02/17 05:08:17;;;;;;;7.97;5.77;;;11.20;99.90;;;;;;5037970;28;20657;-93
2023/02/17 05:10:43;;;;;;;7.77;5.83;;;11.20;99.90;;;;;;5037042;28;20170;-88
2023/02/17 05:13:09;;;;;;;9.43;5.77;;;11.20;99.90;;;;;;5038146;28;20303;-88
2023/02/17 05:15:34;;;;;;;8.30;6.00;;;11.20;99.90;;;;;;5037190;28;20180;-89
2023/02/17 05:18:00;;;;;;;9.93;6.83;;;11.20;99.90;;;;;;5033671;28;20174;-83
2023/02/17 05:20:26;;;;;;;9.03;5.63;;;11.30;99.90;;;;;;5023167;28;20213;-88
2023/02/17 05:22:52;;;;;;;8.80;6.10;;;11.10;99.90;;;;;;5034143;28;20173;-82
2023/02/17 05:25:18;;;;;;;6.33;5.43;;;11.20;99.90;;;;;;5054179;28;20170;-80
2023/02/17 05:27:43;;;;;;;8.83;5.80;;;11.20;99.90;;;;;;5035898;28;20261;-90
2023/02/17 05:30:11;;;;;;;7.67;5.73;;;11.30;99.90;;;;;;5020088;28;20272;-89
2023/02/17 05:32:37;;;;;;;8.30;6.03;;;11.20;99.90;;;;;;5023203;28;20177;-84
2023/02/17 05:35:03;;;;;;;7.93;5.37;;;11.20;99.90;;;;;;5026176;28;20238;-84
2023/02/17 05:37:29;;;;;;;8.57;5.30;;;11.20;99.90;;;;;;5022701;28;20188;-89
2023/02/17 05:39:54;;;;;;;7.70;5.03;;;11.20;99.90;;;;;;5018440;28;20213;-82
2023/02/17 05:42:20;;;;;;;8.83;5.40;;;11.20;99.90;;;;;;5035682;28;20193;-90
2023/02/17 05:44:46;;;;;;;8.00;5.53;;;11.10;99.90;;;;;;5020585;28;20530;-92
2023/02/17 05:47:11;;;;;;;8.37;5.93;;;11.20;99.90;;;;;;5031754;28;20225;-86
2023/02/17 05:49:37;;;;;;;7.83;5.43;;;11.20;99.90;;;;;;5027886;28;20221;-81
2023/02/17 05:52:03;;;;;;;11.13;6.17;;;11.10;99.90;;;;;;5051158;28;20173;-84
2023/02/17 05:54:28;;;;;;;8.87;5.50;;;11.10;99.90;;;;;;5049833;28;20197;-80
2023/02/17 05:56:54;;;;;;;9.03;5.57;;;11.10;99.90;;;;;;5038137;28;20178;-81
2023/02/17 05:59:20;;;;;;;6.47;5.07;;;11.20;99.90;;;;;;5032367;28;20691;-84
2023/02/17 06:01:45;;;;;;;7.83;5.60;;;11.20;99.90;;;;;;5020866;28;20181;-84
2023/02/17 06:04:12;;;;;;;6.40;5.40;;;11.20;99.90;;;;;;5018561;28;20175;-88
2023/02/17 06:06:37;;;;;;;8.10;5.13;;;11.10;99.90;;;;;;5017225;28;20631;-91
2023/02/17 06:09:03;;;;;;;7.73;6.23;;;11.10;99.90;;;;;;5024236;28;20182;-80
2023/02/17 06:11:29;;;;;;;7.23;4.67;;;11.20;99.90;;;;;;5048713;28;20182;-82
2023/02/17 06:13:55;;;;;;;9.33;5.67;;;11.10;99.90;;;;;;5037355;28;20155;-80
2023/02/17 06:16:20;;;;;;;7.40;5.93;;;11.20;99.90;;;;;;5049865;28;20173;-81
2023/02/17 06:18:49;;;;;;;9.10;5.77;;;11.20;99.90;;;;;;5043230;28;20689;-87
2023/02/17 06:21:18;;;;;;;6.53;5.40;;;11.20;99.90;;;;;;5022816;28;20242;-92
2023/02/17 06:23:43;;;;;;;7.73;5.30;;;11.20;99.90;;;;;;5025805;28;20274;-92
2023/02/17 06:26:09;;;;;;;6.43;5.47;;;11.20;99.90;;;;;;5020981;28;20247;-90
2023/02/17 06:28:35;;;;;;;10.27;6.20;;;11.10;99.90;;;;;;5029612;28;20181;-91
2023/02/17 06:31:00;;;;;;;9.23;6.33;;;11.20;99.90;;;;;;5043029;28;20564;-91
2023/02/17 06:33:26;;;;;;;9.33;6.80;;;11.20;99.90;;;;;;5040626;28;20196;-91
2023/02/17 06:35:52;;;;;;;8.17;6.43;;;11.10;99.90;;;;;;5043758;28;20244;-88
2023/02/17 06:38:18;;;;;;;9.20;6.33;;;11.10;99.90;;;;;;5048341;28;20181;-83
2023/02/17 06:40:44;;;;;;;11.90;6.97;;;11.10;99.90;;;;;;5049123;28;20192;-83
2023/02/17 06:43:10;;;;;;;8.30;7.00;;;11.20;99.90;;;;;;5050156;28;20178;-92
2023/02/17 06:45:39;;;;;;;8.80;6.67;;;11.10;99.90;;;;;;5039736;28;20251;-93
2023/02/17 06:48:05;;;;;;;10.20;6.90;;;11.20;99.90;;;;;;5049578;28;20166;-87
2023/02/17 06:50:33;;;;;;;9.13;6.70;;;11.10;99.90;;;;;;5051979;28;20198;-91
2023/02/17 06:53:40;;;;;;;10.10;6.60;;;11.20;99.90;;;;;;5038157;28;20166;-89
2023/02/17 06:56:35;;;;;;;9.33;6.43;;;11.20;99.90;;;;;;5037831;28;20169;-87
2023/02/17 06:59:03;;;;;;;9.90;7.30;;;11.20;99.90;;;;;;5054018;28;20185;-93
2023/02/17 07:01:29;;;;;;;9.07;7.20;;;11.10;99.90;;;;;;5052453;28;20188;-87
2023/02/17 07:03:56;;;;;;;10.17;7.17;;;11.10;99.90;;;;;;5073481;28;20161;-91
2023/02/17 07:06:22;;;;;;;9.73;8.03;;;11.30;99.90;;;;;;5053821;28;20174;-86
2023/02/17 07:08:49;;;;;;;10.47;7.07;;;11.20;99.90;;;;;;5048465;28;20185;-88
2023/02/17 07:11:15;;;;;;;10.17;7.27;;;11.10;99.90;;;;;;5044798;28;20170;-85
2023/02/17 07:13:48;;;;;;;12.13;7.53;;;11.10;99.90;;;;;;5046984;28;20181;-85
2023/02/17 07:16:16;;;;;;;9.90;7.77;;;11.10;99.90;;;;;;5051053;28;20165;-85
2023/02/17 07:18:41;;;;;;;10.97;7.57;;;11.20;99.90;;;;;;5052211;28;20168;-88
2023/02/17 07:21:09;;;;;;;9.10;7.30;;;11.20;99.90;;;;;;5043725;28;20193;-90
2023/02/17 07:23:35;;;;;;;10.00;7.53;;;11.20;99.90;;;;;;5042983;28;20642;-91
2023/02/17 07:26:03;;;;;;;10.27;7.37;;;11.30;99.90;;;;;;5041632;28;20173;-90
2023/02/17 07:28:29;;;;;;;11.67;7.83;;;11.20;99.90;;;;;;5039589;28;20181;-88
2023/02/17 07:30:56;;;;;;;10.87;7.03;;;11.30;99.90;;;;;;5043249;28;20173;-86
2023/02/17 07:33:24;;;;;;;9.67;7.63;;;11.30;99.90;;;;;;5046675;28;20176;-87
2023/02/17 07:35:51;;;;;;;11.70;8.63;;;11.30;99.90;;;;;;5041397;28;20165;-89
2023/02/17 07:38:17;;;;;;;13.77;9.03;;;11.30;99.90;;;;;;5038196;28;20174;-88
2023/02/17 07:40:42;;;;;;;9.33;7.73;;;11.30;99.90;;;;;;5053282;28;20208;-88
2023/02/17 07:43:08;;;;;;;13.20;8.67;;;11.30;99.90;;;;;;5027665;28;20170;-88
2023/02/17 07:45:34;;;;;;;9.33;7.20;;;11.30;99.90;;;;;;5037746;28;20170;-88
2023/02/17 07:48:00;;;;;;;8.40;7.07;;;11.40;99.90;;;;;;5038192;28;20513;-90
2023/02/17 07:50:25;;;;;;;8.97;7.13;;;11.40;99.90;;;;;;5028940;28;20208;-89
2023/02/17 07:52:53;;;;;;;10.10;7.73;;;11.40;99.90;;;;;;5034632;28;20622;-90
2023/02/17 07:55:19;;;;;;;10.27;7.67;;;11.40;99.90;;;;;;5035153;28;20190;-91
2023/02/17 07:57:44;;;;;;;10.07;7.20;;;11.50;99.90;;;;;;5035942;28;20247;-88
2023/02/17 08:00:11;;;;;;;12.23;7.43;;;11.50;99.90;;;;;;5033320;28;20228;-89
2023/02/17 08:02:43;;;;;;;8.30;6.70;;;11.50;99.90;;;;;;5024020;28;20689;-89
2023/02/17 08:05:09;;;;;;;9.60;7.07;;;11.50;99.90;;;;;;5028848;28;20603;-92
2023/02/17 08:07:34;;;;;;;8.10;6.77;;;11.50;99.90;;;;;;5041068;28;20196;-93
2023/02/17 08:15:35;;;;;;;10.07;6.47;;;11.60;99.90;;;;;;5043778;28;20654;-92
2023/02/17 08:18:05;;;;;;;9.13;5.57;;;11.60;99.90;;;;;;5040605;28;20827;-93
2023/02/17 08:20:31;;;;;;;6.40;5.60;;;11.60;99.90;;;;;;5034426;28;20226;-85
2023/02/17 08:22:56;;;;;;;6.97;5.47;;;11.60;99.90;;;;;;5022185;28;20162;-89
2023/02/17 08:25:23;;;;;;;8.67;5.73;;;11.60;99.90;;;;;;5022423;28;20174;-90
2023/02/17 08:27:49;;;;;;;6.50;4.60;;;11.60;99.90;;;;;;5023530;28;20174;-92
2023/02/17 08:30:16;;;;;;;6.10;5.07;;;11.70;99.90;;;;;;5053214;28;20182;-81
2023/02/17 08:32:44;;;;;;;6.47;5.17;;;11.70;99.90;;;;;;5056325;28;20178;-81
2023/02/17 08:35:13;;;;;;;6.50;4.90;;;11.80;99.90;;;;;;5052333;28;20182;-92
2023/02/17 08:37:39;;;;;;;6.50;4.40;;;11.80;99.90;;;;;;5046429;28;20173;-87
2023/02/17 08:40:06;;;;;;;6.37;4.10;;;11.90;99.90;;;;;;5055233;28;20259;-84
2023/02/17 08:42:32;;;;;;;5.50;4.17;;;11.90;99.90;;;;;;5055807;28;20165;-88
2023/02/17 08:45:05;;;;;;;7.63;4.30;;;12.00;99.90;;;;;;5059227;28;20165;-82
2023/02/17 08:47:33;;;;;;;7.63;4.20;;;11.90;99.90;;;;;;5055669;28;20174;-82
2023/02/17 08:50:04;;;;;;;6.13;4.10;;;12.00;99.90;;;;;;5040251;28;20265;-81
2023/02/17 08:52:37;;;;;;;5.20;4.30;;;12.00;99.90;;;;;;5037461;28;20173;-86
2023/02/17 08:55:10;;;;;;;5.50;4.23;;;12.10;99.90;;;;;;5046751;28;20186;-82
2023/02/17 08:57:43;;;;;;;6.53;3.93;;;12.10;99.90;;;;;;5044821;28;20190;-86
2023/02/17 09:00:09;;;;;;;6.17;3.67;;;12.20;99.90;;;;;;5055003;28;20209;-87
2023/02/17 09:02:36;;;;;;;4.70;3.00;;;12.30;99.90;;;;;;5036084;28;20197;-83
2023/02/17 09:05:03;;;;;;;4.07;3.20;;;12.40;99.90;;;;;;5036981;28;20189;-85
2023/02/17 09:07:35;;;;;;;5.50;3.00;;;12.40;99.90;;;;;;5043952;28;20178;-79
2023/02/17 09:10:06;;;;;;;4.57;2.70;;;12.40;99.90;;;;;;5059965;28;20192;-81
2023/02/17 09:12:34;;;;;;;4.23;3.30;;;12.40;99.90;;;;;;5048745;28;20177;-82
2023/02/17 09:15:04;;;;;;;3.43;2.63;;;12.50;99.90;;;;;;5050251;28;20192;-80
2023/02/17 09:17:31;;;;;;;5.23;3.70;;;12.50;99.90;;;;;;5051393;28;20166;-79
2023/02/17 09:20:00;;;;;;;4.80;2.90;;;12.50;99.90;;;;;;5045951;28;20776;-84
2023/02/17 09:22:25;;;;;;;3.73;2.90;;;12.60;99.90;;;;;;5044509;28;20246;-89
2023/02/17 09:24:51;;;;;;;3.20;2.73;;;12.70;99.90;;;;;;5047419;28;20220;-81
2023/02/17 09:27:31;;;;;;;3.60;2.50;;;12.70;99.90;;;;;;5059063;28;20158;-81
2023/02/17 09:30:12;;;;;;;4.03;2.60;;;12.70;99.90;;;;;;5058930;28;20221;-89
2023/02/17 09:32:44;;;;;;;3.53;2.37;;;12.80;99.90;;;;;;5057972;28;20201;-93
2023/02/17 09:35:14;;;;;;;3.40;2.50;;;12.90;99.90;;;;;;5054913;28;20177;-88
2023/02/17 09:37:43;;;;;;;4.27;2.80;;;12.90;99.90;;;;;;5033678;28;20475;-92
2023/02/17 09:43:32;;;;;;;4.90;3.47;;;13.10;99.90;;;;;;5034318;28;20243;-94
2023/02/17 09:46:06;;;;;;;5.03;3.47;;;13.10;99.90;;;;;;5033610;28;20174;-88
2023/02/17 09:48:36;;;;;;;3.70;2.70;;;13.20;99.90;;;;;;5039238;28;20185;-87
2023/02/17 09:51:14;;;;;;;3.10;2.50;;;13.30;99.90;;;;;;5040570;28;20261;-88
2023/02/17 09:54:08;;;;;;;4.30;2.60;;;13.40;99.90;;;;;;5039055;28;20209;-91
2023/02/17 09:56:38;;;;;;;4.10;2.33;;;13.50;99.90;;;;;;5039743;28;20188;-91
2023/02/17 09:59:24;;;;;;;2.83;2.03;;;13.60;99.90;;;;;;5035709;28;20640;-89
2023/02/17 10:01:54;;;;;;;2.63;1.53;;;13.60;99.90;;;;;;5040880;28;20183;-89
2023/02/17 10:04:39;;;;;;;2.47;1.60;;;13.40;99.90;;;;;;5041045;28;20181;-92
2023/02/17 10:07:09;;;;;;;3.00;2.17;;;13.60;99.90;;;;;;5027510;28;20247;-86
2023/02/17 10:09:57;;;;;;;2.40;1.80;;;13.60;99.90;;;;;;5035927;28;20179;-93
2023/02/17 10:12:27;;;;;;;3.93;1.67;;;13.60;99.90;;;;;;5023300;28;20171;-90
2023/02/17 10:15:19;;;;;;;2.90;2.27;;;13.60;99.90;;;;;;5041867;28;20178;-92
2023/02/17 10:17:57;;;;;;;3.40;2.23;;;13.60;99.90;;;;;;5063239;28;20176;-91
2023/02/17 10:20:55;;;;;;;3.43;2.43;;;13.60;99.90;;;;;;5040361;28;20299;-91
2023/02/17 10:23:24;;;;;;;11.30;2.80;;;13.60;99.90;;;;;;5059699;28;20193;-83
2023/02/17 10:26:28;;;;;;;6.47;2.90;;;13.70;99.90;;;;;;5030788;28;20240;-86
2023/02/17 10:30:01;;;;;;;2.43;1.83;;;13.80;99.90;;;;;;5040735;28;20187;-82
2023/02/17 10:32:34;;;;;;;3.10;2.20;;;13.80;99.90;;;;;;5044030;28;20194;-85
2023/02/17 10:35:21;;;;;;;3.30;2.20;;;13.80;99.20;;;;;;5045631;28;20199;-84
2023/02/17 10:37:49;;;;;;;2.90;2.10;;;13.80;97.80;;;;;;5034968;28;20198;-82
2023/02/17 10:40:30;;;;;;;4.67;2.13;;;13.80;96.20;;;;;;5052973;28;20253;-81
2023/02/17 10:43:01;;;;;;;4.67;1.93;;;13.90;95.30;;;;;;5049424;28;20187;-80
2023/02/17 10:45:42;;;;;;;4.37;2.07;;;13.90;94.50;;;;;;5042928;28;20182;-89
2023/02/17 10:48:16;;;;;;;3.40;1.93;;;14.00;93.70;;;;;;5046631;28;20182;-84
2023/02/17 10:50:44;;;;;;;2.53;1.73;;;14.00;93.10;;;;;;5046300;28;20222;-80
2023/02/17 10:53:21;;;;;;;3.73;1.90;;;14.10;92.60;;;;;;5043042;28;20195;-84
2023/02/17 10:56:13;;;;;;;3.23;2.30;;;14.10;91.70;;;;;;5015892;28;20178;-91
2023/02/17 10:58:54;;;;;;;3.13;2.50;;;14.10;90.70;;;;;;5045572;28;20179;-90
2023/02/17 11:01:22;;;;;;;3.50;2.47;;;14.10;90.80;;;;;;5040412;28;20180;-84
2023/02/17 11:04:02;;;;;;;4.83;2.93;;;14.10;90.50;;;;;;5029995;28;20173;-86
2023/02/17 11:06:30;;;;;;;3.33;2.40;;;14.10;90.60;;;;;;5046606;28;20170;-81
2023/02/17 11:09:03;;;;;;;4.57;2.40;;;14.00;90.00;;;;;;5033312;28;20202;-84
2023/02/17 11:11:32;;;;;;;2.43;2.07;;;14.00;91.00;;;;;;5043621;28;20236;-88
2023/02/17 11:14:23;;;;;;;3.73;2.60;;;13.90;91.60;;;;;;5027382;28;20183;-82
2023/02/17 11:16:58;;;;;;;2.70;2.30;;;13.90;91.40;;;;;;5035448;28;20218;-87
2023/02/17 11:19:33;;;;;;;3.30;2.47;;;14.00;91.40;;;;;;5020642;28;20641;-84
2023/02/17 11:22:03;;;;;;;5.17;2.27;;;14.00;90.60;;;;;;5018042;28;20646;-85
2023/02/17 11:24:34;;;;;;;5.40;1.90;;;14.00;90.30;;;;;;5030009;28;20204;-81
2023/02/17 11:27:07;;;;;;;6.63;1.80;;;14.10;90.30;;;;;;5035317;28;20166;-88
2023/02/17 11:29:35;;;;;;;3.37;1.40;;;14.30;88.50;;;;;;5033615;28;20171;-80
2023/02/17 11:32:07;;;;;;;3.27;1.60;;;14.10;87.60;;;;;;5043065;28;20187;-81
2023/02/17 11:34:37;;;;;;;2.40;1.50;;;14.10;86.30;;;;;;5028700;28;20219;-84
2023/02/17 11:37:19;;;;;;;1.87;1.00;;;14.10;83.70;;;;;;5042738;28;20207;-86
2023/02/17 11:39:54;;;;;;;1.13;0.80;;;14.10;80.00;;;;;;5034861;28;20202;-81
2023/02/17 11:42:24;;;;;;;2.47;0.90;;;14.00;79.60;;;;;;5035622;28;20207;-89
2023/02/17 11:44:52;;;;;;;1.90;0.87;;;13.90;79.50;;;;;;5059586;28;20170;-82
2023/02/17 11:47:47;;;;;;;1.67;0.90;;;13.90;82.90;;;;;;5071131;28;20174;-82
2023/02/17 11:50:39;;;;;;;1.40;1.00;;;13.90;83.30;;;;;;5031331;28;20207;-85
2023/02/17 11:53:35;;;;;;;3.33;1.00;;;13.90;82.50;;;;;;5028225;28;20180;-82
2023/02/17 11:56:13;;;;;;;1.60;0.80;;;13.90;81.40;;;;;;5024314;28;20531;-84
2023/02/17 11:59:05;;;;;;;2.97;1.00;;;13.90;82.60;;;;;;5045271;28;20176;-84
2023/02/17 12:02:10;;;;;;;1.77;1.00;;;13.90;81.50;;;;;;5023409;28;20298;-86
2023/02/17 12:04:56;;;;;;;2.83;0.90;;;13.90;81.50;;;;;;5044957;28;20183;-82
2023/02/17 12:07:24;;;;;;;1.90;0.87;;;13.80;82.00;;;;;;5056496;28;20181;-83
2023/02/17 12:10:10;;;;;;;1.60;1.00;;;13.80;80.40;;;;;;5038402;28;20179;-90
2023/02/17 12:12:56;;;;;;;2.17;0.90;;;13.80;80.90;;;;;;5040822;28;20182;-85
2023/02/17 12:16:10;;;;;;;2.20;0.80;;;13.80;82.50;;;;;;5054132;28;20183;-89
2023/02/17 12:19:08;;;;;;;3.53;1.00;;;13.80;83.50;;;;;;5031209;28;20183;-88
2023/02/17 12:21:57;;;;;;;5.40;1.20;;;14.00;81.60;;;;;;5031437;28;20186;-85
2023/02/17 12:24:51;;;;;;;2.40;1.17;;;13.80;80.80;;;;;;5026651;28;20309;-87
2023/02/17 12:27:48;;;;;;;2.70;1.00;;;13.80;84.70;;;;;;5037633;28;20172;-84
2023/02/17 12:30:32;;;;;;;1.77;0.80;;;13.70;84.70;;;;;;5030705;28;20309;-89
2023/02/17 12:33:46;;;;;;;1.47;0.90;;;13.60;85.90;;;;;;5034079;28;20183;-89
2023/02/17 12:36:15;;;;;;;1.17;0.80;;;13.60;88.90;;;;;;4984353;28;20308;-86
2023/02/17 12:38:54;;;;;;;2.43;0.80;;;13.60;86.90;;;;;;5032457;28;20193;-86
2023/02/17 12:41:27;;;;;;;1.70;1.10;;;13.70;87.10;;;;;;5031768;28;20495;-88
2023/02/17 12:43:57;;;;;;;1.43;0.80;;;13.50;90.00;;;;;;5047153;28;20189;-88
2023/02/17 12:46:31;;;;;;;2.07;0.73;;;13.40;90.40;;;;;;5039848;28;20624;-87
2023/02/17 12:49:33;;;;;;;2.10;0.80;;;13.30;91.40;;;;;;5027230;28;20243;-81
2023/02/17 12:52:04;;;;;;;2.03;0.80;;;13.20;91.90;;;;;;5015579;28;20186;-90
2023/02/17 12:54:43;;;;;;;2.33;0.80;;;13.40;91.80;;;;;;5018544;28;20575;-89
2023/02/17 12:57:12;;;;;;;4.47;1.03;;;13.10;93.50;;;;;;5017189;28;20189;-89
2023/02/17 12:59:40;;;;;;;3.90;1.10;;;13.30;93.30;;;;;;5030558;28;20669;-91
2023/02/17 13:02:21;;;;;;;4.47;1.13;;;13.20;93.20;;;;;;5034812;28;20300;-89
2023/02/17 13:04:51;;;;;;;2.40;0.80;;;13.10;93.60;;;;;;5019392;28;20166;-90
2023/02/17 13:07:22;;;;;;;3.87;1.00;;;13.20;94.10;;;;;;5017815;28;20178;-86
2023/02/17 13:09:50;;;;;;;4.50;1.00;;;13.10;94.10;;;;;;5017781;28;20158;-87
2023/02/17 13:12:17;;;;;;;4.40;1.30;;;13.20;94.10;;;;;;5028658;28;20178;-90
2023/02/17 13:14:45;;;;;;;8.80;2.30;;;13.30;93.30;;;;;;5035210;28;20269;-87
2023/02/17 13:17:30;;;;;;;6.83;1.20;;;13.20;92.60;;;;;;5037494;28;20174;-87
2023/02/17 13:20:11;;;;;;;4.13;0.93;;;13.20;93.00;;;;;;5035616;28;20213;-86